sensor_id;sensor_type;location;lat;lon;timestamp;temperature;humidity
46898;DHT22;32646;50.958;6.258;2023-10-31T00:00:36;10.30;99.90
46898;DHT22;32646;50.958;6.258;2023-10-31T00:03:02;10.30;99.90
46898;DHT22;32646;50.958;6.258;2023-10-31T00:05:29;10.20;99.90
46898;DHT22;32646;50.958;6.258;2023-10-31T00:07:56;10.20;99.90
46898;DHT22;32646;50.958;6.258;2023-10-31T00:10:22;10.20;99.90
46898;DHT22;32646;50.958;6.258;2023-10-31T00:12:49;10.10;99.90
46898;DHT22;32646;50.958;6.258;2023-10-31T00:15:16;10.10;99.90
46898;DHT22;32646;50.958;6.258;2023-10-31T00:17:43;10.10;99.90
46898;DHT22;32646;50.958;6.258;2023-10-31T00:20:09;10.10;99.90
46898;DHT22;32646;50.958;6.258;2023-10-31T00:22:36;10.10;99.90
46898;DHT22;32646;50.958;6.258;2023-10-31T00:25:03;10.10;99.90
46898;DHT22;32646;50.958;6.258;2023-10-31T00:27:29;10.10;99.90
46898;DHT22;32646;50.958;6.258;2023-10-31T00:29:56;10.00;99.90
46898;DHT22;32646;50.958;6.258;2023-10-31T00:32:23;10.00;99.90
46898;DHT22;32646;50.958;6.258;2023-10-31T00:34:49;10.00;99.90
46898;DHT22;32646;50.958;6.258;2023-10-31T00:37:16;9.90;99.90
46898;DHT22;32646;50.958;6.258;2023-10-31T00:39:43;9.90;99.90
46898;DHT22;32646;50.958;6.258;2023-10-31T00:42:09;9.90;99.90
46898;DHT22;32646;50.958;6.258;2023-10-31T00:44:36;9.80;99.90
46898;DHT22;32646;50.958;6.258;2023-10-31T00:47:02;9.80;99.90
46898;DHT22;32646;50.958;6.258;2023-10-31T00:49:29;9.80;99.90
46898;DHT22;32646;50.958;6.258;2023-10-31T00:51:56;9.80;99.90
46898;DHT22;32646;50.958;6.258;2023-10-31T00:54:23;9.80;99.90
46898;DHT22;32646;50.958;6.258;2023-10-31T00:56:49;9.80;99.90
46898;DHT22;32646;50.958;6.258;2023-10-31T00:59:16;9.80;99.90
46898;DHT22;32646;50.958;6.258;2023-10-31T01:01:43;9.80;99.90
46898;DHT22;32646;50.958;6.258;2023-10-31T01:04:10;9.80;99.90
46898;DHT22;32646;50.958;6.258;2023-10-31T01:06:44;9.80;99.90
46898;DHT22;32646;50.958;6.258;2023-10-31T01:09:10;9.80;99.90
46898;DHT22;32646;50.958;6.258;2023-10-31T01:11:37;9.80;99.90
46898;DHT22;32646;50.958;6.258;2023-10-31T01:14:03;9.80;99.90
46898;DHT22;32646;50.958;6.258;2023-10-31T01:16:30;9.80;99.90
46898;DHT22;32646;50.958;6.258;2023-10-31T01:18:57;9.80;99.90
46898;DHT22;32646;50.958;6.258;2023-10-31T01:21:23;9.80;99.90
46898;DHT22;32646;50.958;6.258;2023-10-31T01:23:50;9.70;99.90
46898;DHT22;32646;50.958;6.258;2023-10-31T01:26:17;9.70;99.90
46898;DHT22;32646;50.958;6.258;2023-10-31T01:28:43;9.70;99.90
46898;DHT22;32646;50.958;6.258;2023-10-31T01:31:10;9.70;99.90
46898;DHT22;32646;50.958;6.258;2023-10-31T01:33:37;9.70;99.90
46898;DHT22;32646;50.958;6.258;2023-10-31T01:36:04;9.70;99.90
46898;DHT22;32646;50.958;6.258;2023-10-31T01:38:30;9.60;99.90
46898;DHT22;32646;50.958;6.258;2023-10-31T01:40:57;9.70;99.90
46898;DHT22;32646;50.958;6.258;2023-10-31T01:43:37;9.60;99.90
46898;DHT22;32646;50.958;6.258;2023-10-31T01:46:04;9.60;99.90
46898;DHT22;32646;50.958;6.258;2023-10-31T01:48:32;9.70;99.90
46898;DHT22;32646;50.958;6.258;2023-10-31T01:51:01;9.60;99.90
46898;DHT22;32646;50.958;6.258;2023-10-31T01:53:29;9.70;99.90
46898;DHT22;32646;50.958;6.258;2023-10-31T01:55:57;9.70;99.90
46898;DHT22;32646;50.958;6.258;2023-10-31T01:58:29;9.80;99.90
46898;DHT22;32646;50.958;6.258;2023-10-31T02:00:57;9.70;99.90
46898;DHT22;32646;50.958;6.258;2023-10-31T02:03:24;9.80;99.90
46898;DHT22;32646;50.958;6.258;2023-10-31T02:05:51;9.70;99.90
46898;DHT22;32646;50.958;6.258;2023-10-31T02:08:18;9.70;99.90
46898;DHT22;32646;50.958;6.258;2023-10-31T02:10:45;9.70;99.90
46898;DHT22;32646;50.958;6.258;2023-10-31T02:13:16;9.60;99.90
46898;DHT22;32646;50.958;6.258;2023-10-31T02:15:44;9.60;99.90
46898;DHT22;32646;50.958;6.258;2023-10-31T02:18:12;9.60;99.90
46898;DHT22;32646;50.958;6.258;2023-10-31T02:20:38;9.60;99.90
46898;DHT22;32646;50.958;6.258;2023-10-31T02:23:05;9.70;99.90
46898;DHT22;32646;50.958;6.258;2023-10-31T02:25:32;9.60;99.90
46898;DHT22;32646;50.958;6.258;2023-10-31T02:27:59;9.60;99.90
46898;DHT22;32646;50.958;6.258;2023-10-31T02:30:27;9.50;99.90
46898;DHT22;32646;50.958;6.258;2023-10-31T02:32:54;9.50;99.90
46898;DHT22;32646;50.958;6.258;2023-10-31T02:35:21;9.50;99.90
46898;DHT22;32646;50.958;6.258;2023-10-31T02:37:48;9.60;99.90
46898;DHT22;32646;50.958;6.258;2023-10-31T02:40:15;9.50;99.90
46898;DHT22;32646;50.958;6.258;2023-10-31T02:42:41;9.50;99.90
46898;DHT22;32646;50.958;6.258;2023-10-31T02:45:08;9.40;99.90
46898;DHT22;32646;50.958;6.258;2023-10-31T02:47:35;9.30;99.90
46898;DHT22;32646;50.958;6.258;2023-10-31T02:50:02;9.40;99.90
46898;DHT22;32646;50.958;6.258;2023-10-31T02:52:29;9.40;99.90
46898;DHT22;32646;50.958;6.258;2023-10-31T02:54:55;9.40;99.90
46898;DHT22;32646;50.958;6.258;2023-10-31T02:57:22;9.40;99.90
46898;DHT22;32646;50.958;6.258;2023-10-31T02:59:49;9.50;99.90
46898;DHT22;32646;50.958;6.258;2023-10-31T03:02:15;9.60;99.90
46898;DHT22;32646;50.958;6.258;2023-10-31T03:04:42;9.70;99.90
46898;DHT22;32646;50.958;6.258;2023-10-31T03:07:09;9.70;99.90
46898;DHT22;32646;50.958;6.258;2023-10-31T03:09:35;9.80;99.90
46898;DHT22;32646;50.958;6.258;2023-10-31T03:12:02;9.90;99.90
46898;DHT22;32646;50.958;6.258;2023-10-31T03:14:29;9.90;99.90
46898;DHT22;32646;50.958;6.258;2023-10-31T03:16:55;9.90;99.90
46898;DHT22;32646;50.958;6.258;2023-10-31T03:19:22;10.00;99.90
46898;DHT22;32646;50.958;6.258;2023-10-31T03:21:49;10.10;99.90
46898;DHT22;32646;50.958;6.258;2023-10-31T03:24:15;10.10;99.90
46898;DHT22;32646;50.958;6.258;2023-10-31T03:26:42;10.20;99.90
46898;DHT22;32646;50.958;6.258;2023-10-31T03:29:08;10.20;99.90
46898;DHT22;32646;50.958;6.258;2023-10-31T03:31:35;10.20;99.90
46898;DHT22;32646;50.958;6.258;2023-10-31T03:34:02;10.30;99.90
46898;DHT22;32646;50.958;6.258;2023-10-31T03:36:28;10.40;99.90
46898;DHT22;32646;50.958;6.258;2023-10-31T03:38:55;10.40;99.90
46898;DHT22;32646;50.958;6.258;2023-10-31T03:41:21;10.40;99.90
46898;DHT22;32646;50.958;6.258;2023-10-31T03:43:48;10.50;99.90
46898;DHT22;32646;50.958;6.258;2023-10-31T03:46:15;10.50;99.90
46898;DHT22;32646;50.958;6.258;2023-10-31T03:48:42;10.50;99.90
46898;DHT22;32646;50.958;6.258;2023-10-31T03:51:08;10.50;99.90
46898;DHT22;32646;50.958;6.258;2023-10-31T03:53:35;10.40;99.90
46898;DHT22;32646;50.958;6.258;2023-10-31T03:56:02;10.40;99.90
46898;DHT22;32646;50.958;6.258;2023-10-31T03:58:29;10.50;99.90
46898;DHT22;32646;50.958;6.258;2023-10-31T04:00:55;10.50;99.90
46898;DHT22;32646;50.958;6.258;2023-10-31T04:03:22;10.40;99.90
46898;DHT22;32646;50.958;6.258;2023-10-31T04:05:49;10.40;99.90
46898;DHT22;32646;50.958;6.258;2023-10-31T04:08:15;10.30;99.90
46898;DHT22;32646;50.958;6.258;2023-10-31T04:10:42;10.30;99.90
46898;DHT22;32646;50.958;6.258;2023-10-31T04:13:08;10.30;99.90
46898;DHT22;32646;50.958;6.258;2023-10-31T04:15:35;10.30;99.90
46898;DHT22;32646;50.958;6.258;2023-10-31T04:18:02;10.30;99.90
46898;DHT22;32646;50.958;6.258;2023-10-31T04:20:28;10.40;99.90
46898;DHT22;32646;50.958;6.258;2023-10-31T04:22:55;10.40;99.90
46898;DHT22;32646;50.958;6.258;2023-10-31T04:25:21;10.40;99.90
46898;DHT22;32646;50.958;6.258;2023-10-31T04:27:48;10.40;99.90
46898;DHT22;32646;50.958;6.258;2023-10-31T04:30:15;10.50;99.90
46898;DHT22;32646;50.958;6.258;2023-10-31T04:32:41;10.50;99.90
46898;DHT22;32646;50.958;6.258;2023-10-31T04:35:08;10.50;99.90
46898;DHT22;32646;50.958;6.258;2023-10-31T04:37:35;10.50;99.90
46898;DHT22;32646;50.958;6.258;2023-10-31T04:40:02;10.60;99.90
46898;DHT22;32646;50.958;6.258;2023-10-31T04:42:28;10.60;99.90
46898;DHT22;32646;50.958;6.258;2023-10-31T04:44:55;10.60;99.90
46898;DHT22;32646;50.958;6.258;2023-10-31T04:47:21;10.50;99.90
46898;DHT22;32646;50.958;6.258;2023-10-31T04:49:48;10.50;99.90
46898;DHT22;32646;50.958;6.258;2023-10-31T04:52:16;10.50;99.90
46898;DHT22;32646;50.958;6.258;2023-10-31T04:54:43;10.50;99.90
46898;DHT22;32646;50.958;6.258;2023-10-31T04:57:10;10.40;99.90
46898;DHT22;32646;50.958;6.258;2023-10-31T04:59:36;10.40;99.90
46898;DHT22;32646;50.958;6.258;2023-10-31T05:02:03;10.40;99.90
46898;DHT22;32646;50.958;6.258;2023-10-31T05:04:30;10.40;99.90
46898;DHT22;32646;50.958;6.258;2023-10-31T05:06:56;10.40;99.90
46898;DHT22;32646;50.958;6.258;2023-10-31T05:09:23;10.40;99.90
46898;DHT22;32646;50.958;6.258;2023-10-31T05:11:50;10.40;99.90
46898;DHT22;32646;50.958;6.258;2023-10-31T05:14:16;10.30;99.90
46898;DHT22;32646;50.958;6.258;2023-10-31T05:16:43;10.40;99.90
46898;DHT22;32646;50.958;6.258;2023-10-31T05:19:10;10.40;99.90
46898;DHT22;32646;50.958;6.258;2023-10-31T05:21:37;10.40;99.90
46898;DHT22;32646;50.958;6.258;2023-10-31T05:24:04;10.40;99.90
46898;DHT22;32646;50.958;6.258;2023-10-31T05:26:31;10.30;99.90
46898;DHT22;32646;50.958;6.258;2023-10-31T05:28:58;10.30;99.90
46898;DHT22;32646;50.958;6.258;2023-10-31T05:31:25;10.30;99.90
46898;DHT22;32646;50.958;6.258;2023-10-31T05:33:52;10.30;99.90
46898;DHT22;32646;50.958;6.258;2023-10-31T05:36:19;10.30;99.90
46898;DHT22;32646;50.958;6.258;2023-10-31T05:38:46;10.30;99.90
46898;DHT22;32646;50.958;6.258;2023-10-31T05:41:13;10.30;99.90
46898;DHT22;32646;50.958;6.258;2023-10-31T05:43:40;10.30;99.90
46898;DHT22;32646;50.958;6.258;2023-10-31T05:46:07;10.20;99.90
46898;DHT22;32646;50.958;6.258;2023-10-31T05:48:34;10.20;99.90
46898;DHT22;32646;50.958;6.258;2023-10-31T05:51:01;10.20;99.90
46898;DHT22;32646;50.958;6.258;2023-10-31T05:53:27;10.20;99.90
46898;DHT22;32646;50.958;6.258;2023-10-31T05:55:54;10.10;99.90
46898;DHT22;32646;50.958;6.258;2023-10-31T05:58:20;10.10;99.90
46898;DHT22;32646;50.958;6.258;2023-10-31T06:00:47;10.10;99.90
46898;DHT22;32646;50.958;6.258;2023-10-31T06:03:13;10.10;99.90
46898;DHT22;32646;50.958;6.258;2023-10-31T06:05:40;10.10;99.90
46898;DHT22;32646;50.958;6.258;2023-10-31T06:08:07;10.00;99.90
46898;DHT22;32646;50.958;6.258;2023-10-31T06:10:33;10.00;99.90
46898;DHT22;32646;50.958;6.258;2023-10-31T06:13:00;10.00;99.90
46898;DHT22;32646;50.958;6.258;2023-10-31T06:15:27;9.90;99.90
46898;DHT22;32646;50.958;6.258;2023-10-31T06:17:53;9.90;99.90
46898;DHT22;32646;50.958;6.258;2023-10-31T06:20:20;9.90;99.90
46898;DHT22;32646;50.958;6.258;2023-10-31T06:22:46;9.90;99.90
46898;DHT22;32646;50.958;6.258;2023-10-31T06:25:13;9.90;99.90
46898;DHT22;32646;50.958;6.258;2023-10-31T06:27:40;9.90;99.90
46898;DHT22;32646;50.958;6.258;2023-10-31T06:30:07;10.00;99.90
46898;DHT22;32646;50.958;6.258;2023-10-31T06:32:49;10.00;99.90
46898;DHT22;32646;50.958;6.258;2023-10-31T06:35:16;10.10;99.90
46898;DHT22;32646;50.958;6.258;2023-10-31T06:37:42;10.10;99.90
46898;DHT22;32646;50.958;6.258;2023-10-31T06:40:09;10.10;99.90
46898;DHT22;32646;50.958;6.258;2023-10-31T06:42:36;10.10;99.90
46898;DHT22;32646;50.958;6.258;2023-10-31T06:45:03;10.10;99.90
46898;DHT22;32646;50.958;6.258;2023-10-31T06:47:30;10.10;99.90
46898;DHT22;32646;50.958;6.258;2023-10-31T06:49:57;10.10;99.90
46898;DHT22;32646;50.958;6.258;2023-10-31T06:52:23;10.20;99.90
46898;DHT22;32646;50.958;6.258;2023-10-31T06:54:50;10.10;99.90
46898;DHT22;32646;50.958;6.258;2023-10-31T06:57:17;10.10;99.90
46898;DHT22;32646;50.958;6.258;2023-10-31T06:59:43;10.10;99.90
46898;DHT22;32646;50.958;6.258;2023-10-31T07:02:10;10.20;99.90
46898;DHT22;32646;50.958;6.258;2023-10-31T07:04:36;10.20;99.90
46898;DHT22;32646;50.958;6.258;2023-10-31T07:07:03;10.20;99.90
46898;DHT22;32646;50.958;6.258;2023-10-31T07:09:30;10.30;99.90
46898;DHT22;32646;50.958;6.258;2023-10-31T07:11:56;10.40;99.90
46898;DHT22;32646;50.958;6.258;2023-10-31T07:14:23;10.40;99.90
46898;DHT22;32646;50.958;6.258;2023-10-31T07:16:49;10.30;99.90
46898;DHT22;32646;50.958;6.258;2023-10-31T07:19:16;10.20;99.90
46898;DHT22;32646;50.958;6.258;2023-10-31T07:21:43;10.20;99.90
46898;DHT22;32646;50.958;6.258;2023-10-31T07:24:09;10.30;99.90
46898;DHT22;32646;50.958;6.258;2023-10-31T07:26:36;10.30;99.90
46898;DHT22;32646;50.958;6.258;2023-10-31T07:29:03;10.40;99.90
46898;DHT22;32646;50.958;6.258;2023-10-31T07:31:29;10.50;99.90
46898;DHT22;32646;50.958;6.258;2023-10-31T07:33:56;10.50;99.90
46898;DHT22;32646;50.958;6.258;2023-10-31T07:36:23;10.50;99.90
46898;DHT22;32646;50.958;6.258;2023-10-31T07:38:49;10.60;99.90
46898;DHT22;32646;50.958;6.258;2023-10-31T07:41:16;10.60;99.90
46898;DHT22;32646;50.958;6.258;2023-10-31T07:43:42;10.80;99.90
46898;DHT22;32646;50.958;6.258;2023-10-31T07:46:09;11.10;99.90
46898;DHT22;32646;50.958;6.258;2023-10-31T07:48:36;11.70;99.90
46898;DHT22;32646;50.958;6.258;2023-10-31T07:51:03;12.30;99.90
46898;DHT22;32646;50.958;6.258;2023-10-31T07:53:29;12.10;99.90
46898;DHT22;32646;50.958;6.258;2023-10-31T07:55:56;12.40;99.90
46898;DHT22;32646;50.958;6.258;2023-10-31T07:58:23;12.40;99.90
46898;DHT22;32646;50.958;6.258;2023-10-31T08:00:49;11.70;99.90
46898;DHT22;32646;50.958;6.258;2023-10-31T08:03:16;11.50;99.90
46898;DHT22;32646;50.958;6.258;2023-10-31T08:05:43;11.30;99.90
46898;DHT22;32646;50.958;6.258;2023-10-31T08:08:09;11.30;99.90
46898;DHT22;32646;50.958;6.258;2023-10-31T08:10:36;11.60;99.90
46898;DHT22;32646;50.958;6.258;2023-10-31T08:13:02;12.10;99.90
46898;DHT22;32646;50.958;6.258;2023-10-31T08:15:29;11.80;99.90
46898;DHT22;32646;50.958;6.258;2023-10-31T08:17:56;11.50;99.90
46898;DHT22;32646;50.958;6.258;2023-10-31T08:20:22;11.40;99.90
46898;DHT22;32646;50.958;6.258;2023-10-31T08:22:49;11.20;99.90
46898;DHT22;32646;50.958;6.258;2023-10-31T08:25:15;11.00;99.90
46898;DHT22;32646;50.958;6.258;2023-10-31T08:27:42;11.50;99.90
46898;DHT22;32646;50.958;6.258;2023-10-31T08:30:09;12.50;99.90
46898;DHT22;32646;50.958;6.258;2023-10-31T08:32:36;13.10;99.90
46898;DHT22;32646;50.958;6.258;2023-10-31T08:35:02;13.50;97.80
46898;DHT22;32646;50.958;6.258;2023-10-31T08:37:29;13.50;97.20
46898;DHT22;32646;50.958;6.258;2023-10-31T08:39:56;13.80;95.90
46898;DHT22;32646;50.958;6.258;2023-10-31T08:42:22;13.50;94.90
46898;DHT22;32646;50.958;6.258;2023-10-31T08:44:49;13.30;96.00
46898;DHT22;32646;50.958;6.258;2023-10-31T08:47:15;13.30;96.00
46898;DHT22;32646;50.958;6.258;2023-10-31T08:49:42;13.10;98.80
46898;DHT22;32646;50.958;6.258;2023-10-31T08:52:09;13.80;98.40
46898;DHT22;32646;50.958;6.258;2023-10-31T08:54:35;13.80;94.90
46898;DHT22;32646;50.958;6.258;2023-10-31T08:57:02;13.80;94.60
46898;DHT22;32646;50.958;6.258;2023-10-31T08:59:29;13.80;90.40
46898;DHT22;32646;50.958;6.258;2023-10-31T09:01:55;13.70;92.70
46898;DHT22;32646;50.958;6.258;2023-10-31T09:04:22;13.60;93.40
46898;DHT22;32646;50.958;6.258;2023-10-31T09:06:48;13.80;95.40
46898;DHT22;32646;50.958;6.258;2023-10-31T09:09:15;14.10;91.60
46898;DHT22;32646;50.958;6.258;2023-10-31T09:11:41;13.80;90.80
46898;DHT22;32646;50.958;6.258;2023-10-31T09:14:08;14.20;92.20
46898;DHT22;32646;50.958;6.258;2023-10-31T09:16:35;14.10;88.40
46898;DHT22;32646;50.958;6.258;2023-10-31T09:19:01;14.30;90.70
46898;DHT22;32646;50.958;6.258;2023-10-31T09:21:28;14.10;86.10
46898;DHT22;32646;50.958;6.258;2023-10-31T09:23:54;14.50;88.90
46898;DHT22;32646;50.958;6.258;2023-10-31T09:26:21;13.70;90.50
46898;DHT22;32646;50.958;6.258;2023-10-31T09:28:48;13.80;91.60
46898;DHT22;32646;50.958;6.258;2023-10-31T09:31:16;13.80;93.00
46898;DHT22;32646;50.958;6.258;2023-10-31T09:33:43;14.20;92.30
46898;DHT22;32646;50.958;6.258;2023-10-31T09:36:10;14.30;90.20
46898;DHT22;32646;50.958;6.258;2023-10-31T09:38:36;14.30;85.30
46898;DHT22;32646;50.958;6.258;2023-10-31T09:41:03;14.70;88.60
46898;DHT22;32646;50.958;6.258;2023-10-31T09:43:30;14.00;87.60
46898;DHT22;32646;50.958;6.258;2023-10-31T09:45:58;13.40;89.30
46898;DHT22;32646;50.958;6.258;2023-10-31T09:48:24;13.00;94.80
46898;DHT22;32646;50.958;6.258;2023-10-31T09:50:52;12.80;96.20
46898;DHT22;32646;50.958;6.258;2023-10-31T09:53:19;12.90;96.70
46898;DHT22;32646;50.958;6.258;2023-10-31T09:55:46;13.40;92.40
46898;DHT22;32646;50.958;6.258;2023-10-31T09:58:13;13.90;90.40
46898;DHT22;32646;50.958;6.258;2023-10-31T10:00:40;14.80;87.50
46898;DHT22;32646;50.958;6.258;2023-10-31T10:03:09;14.60;82.30
46898;DHT22;32646;50.958;6.258;2023-10-31T10:05:36;13.90;82.60
46898;DHT22;32646;50.958;6.258;2023-10-31T10:08:06;13.20;90.50
46898;DHT22;32646;50.958;6.258;2023-10-31T10:10:35;13.00;91.60
46898;DHT22;32646;50.958;6.258;2023-10-31T10:13:02;13.20;91.20
46898;DHT22;32646;50.958;6.258;2023-10-31T10:15:29;13.90;87.30
46898;DHT22;32646;50.958;6.258;2023-10-31T10:17:56;14.20;85.70
46898;DHT22;32646;50.958;6.258;2023-10-31T10:20:22;14.50;79.90
46898;DHT22;32646;50.958;6.258;2023-10-31T10:22:49;15.10;84.70
46898;DHT22;32646;50.958;6.258;2023-10-31T10:25:17;15.00;73.20
46898;DHT22;32646;50.958;6.258;2023-10-31T10:27:45;15.30;74.00
46898;DHT22;32646;50.958;6.258;2023-10-31T10:30:13;15.50;70.40
46898;DHT22;32646;50.958;6.258;2023-10-31T10:32:40;15.30;68.50
46898;DHT22;32646;50.958;6.258;2023-10-31T10:35:07;15.40;71.20
46898;DHT22;32646;50.958;6.258;2023-10-31T10:37:37;15.20;70.40
46898;DHT22;32646;50.958;6.258;2023-10-31T10:40:06;15.20;73.20
46898;DHT22;32646;50.958;6.258;2023-10-31T10:45:10;15.10;70.30
46898;DHT22;32646;50.958;6.258;2023-10-31T10:47:39;14.50;72.40
46898;DHT22;32646;50.958;6.258;2023-10-31T10:50:07;14.70;74.10
46898;DHT22;32646;50.958;6.258;2023-10-31T10:55:20;14.40;74.30
46898;DHT22;32646;50.958;6.258;2023-10-31T10:57:53;14.80;75.60
46898;DHT22;32646;50.958;6.258;2023-10-31T11:00:22;15.00;71.60
46898;DHT22;32646;50.958;6.258;2023-10-31T11:02:50;14.40;75.00
46898;DHT22;32646;50.958;6.258;2023-10-31T11:05:19;14.10;77.60
46898;DHT22;32646;50.958;6.258;2023-10-31T11:07:46;14.00;80.80
46898;DHT22;32646;50.958;6.258;2023-10-31T11:10:14;13.70;84.50
46898;DHT22;32646;50.958;6.258;2023-10-31T11:12:41;13.80;85.20
46898;DHT22;32646;50.958;6.258;2023-10-31T11:15:11;13.90;83.20
46898;DHT22;32646;50.958;6.258;2023-10-31T11:17:40;13.90;87.90
46898;DHT22;32646;50.958;6.258;2023-10-31T11:20:10;13.90;83.30
46898;DHT22;32646;50.958;6.258;2023-10-31T11:22:38;14.00;84.70
46898;DHT22;32646;50.958;6.258;2023-10-31T11:25:11;14.10;84.10
46898;DHT22;32646;50.958;6.258;2023-10-31T11:27:50;14.20;82.20
46898;DHT22;32646;50.958;6.258;2023-10-31T11:30:21;14.70;84.50
46898;DHT22;32646;50.958;6.258;2023-10-31T11:32:50;15.40;80.70
46898;DHT22;32646;50.958;6.258;2023-10-31T11:35:18;15.10;73.00
46898;DHT22;32646;50.958;6.258;2023-10-31T11:37:48;15.60;70.30
46898;DHT22;32646;50.958;6.258;2023-10-31T11:40:20;15.50;72.00
46898;DHT22;32646;50.958;6.258;2023-10-31T11:42:56;15.70;70.50
46898;DHT22;32646;50.958;6.258;2023-10-31T11:45:42;15.20;68.80
46898;DHT22;32646;50.958;6.258;2023-10-31T11:48:10;15.50;74.30
46898;DHT22;32646;50.958;6.258;2023-10-31T11:50:38;15.90;68.00
46898;DHT22;32646;50.958;6.258;2023-10-31T11:55:39;15.70;66.20
46898;DHT22;32646;50.958;6.258;2023-10-31T11:58:22;16.10;64.60
46898;DHT22;32646;50.958;6.258;2023-10-31T12:00:51;15.80;72.20
46898;DHT22;32646;50.958;6.258;2023-10-31T12:03:19;15.60;68.00
46898;DHT22;32646;50.958;6.258;2023-10-31T12:05:57;15.70;66.50
46898;DHT22;32646;50.958;6.258;2023-10-31T12:08:44;16.20;69.00
46898;DHT22;32646;50.958;6.258;2023-10-31T12:11:12;15.60;68.90
46898;DHT22;32646;50.958;6.258;2023-10-31T12:13:41;15.20;69.20
46898;DHT22;32646;50.958;6.258;2023-10-31T12:16:09;15.40;69.00
46898;DHT22;32646;50.958;6.258;2023-10-31T12:18:37;15.70;69.00
46898;DHT22;32646;50.958;6.258;2023-10-31T12:21:04;15.90;65.90
46898;DHT22;32646;50.958;6.258;2023-10-31T12:23:31;16.20;66.30
46898;DHT22;32646;50.958;6.258;2023-10-31T12:25:57;15.90;64.00
46898;DHT22;32646;50.958;6.258;2023-10-31T12:28:25;16.50;63.70
46898;DHT22;32646;50.958;6.258;2023-10-31T12:30:53;16.30;64.90
46898;DHT22;32646;50.958;6.258;2023-10-31T12:33:20;16.50;65.90
46898;DHT22;32646;50.958;6.258;2023-10-31T12:35:48;16.50;64.70
46898;DHT22;32646;50.958;6.258;2023-10-31T12:38:16;16.70;65.70
46898;DHT22;32646;50.958;6.258;2023-10-31T12:40:43;16.90;61.10
46898;DHT22;32646;50.958;6.258;2023-10-31T12:43:10;16.10;64.50
46898;DHT22;32646;50.958;6.258;2023-10-31T12:45:37;15.50;66.60
46898;DHT22;32646;50.958;6.258;2023-10-31T12:48:08;15.80;70.50
46898;DHT22;32646;50.958;6.258;2023-10-31T12:50:36;16.50;68.50
46898;DHT22;32646;50.958;6.258;2023-10-31T12:53:03;17.00;57.40
46898;DHT22;32646;50.958;6.258;2023-10-31T12:55:36;16.80;62.40
46898;DHT22;32646;50.958;6.258;2023-10-31T12:58:03;16.80;62.50
46898;DHT22;32646;50.958;6.258;2023-10-31T13:00:31;16.40;58.60
46898;DHT22;32646;50.958;6.258;2023-10-31T13:03:03;16.30;62.40
46898;DHT22;32646;50.958;6.258;2023-10-31T13:05:30;16.30;60.50
46898;DHT22;32646;50.958;6.258;2023-10-31T13:07:58;16.50;60.10
46898;DHT22;32646;50.958;6.258;2023-10-31T13:10:25;16.40;61.30
46898;DHT22;32646;50.958;6.258;2023-10-31T13:12:52;15.70;61.50
46898;DHT22;32646;50.958;6.258;2023-10-31T13:15:20;15.20;65.00
46898;DHT22;32646;50.958;6.258;2023-10-31T13:17:48;15.10;75.30
46898;DHT22;32646;50.958;6.258;2023-10-31T13:20:17;15.20;73.50
46898;DHT22;32646;50.958;6.258;2023-10-31T13:22:45;15.80;71.30
46898;DHT22;32646;50.958;6.258;2023-10-31T13:25:13;16.20;63.90
46898;DHT22;32646;50.958;6.258;2023-10-31T13:27:41;16.90;70.20
46898;DHT22;32646;50.958;6.258;2023-10-31T13:30:09;17.20;58.20
46898;DHT22;32646;50.958;6.258;2023-10-31T13:32:36;16.50;59.10
46898;DHT22;32646;50.958;6.258;2023-10-31T13:35:03;16.60;60.60
46898;DHT22;32646;50.958;6.258;2023-10-31T13:37:30;17.10;63.80
46898;DHT22;32646;50.958;6.258;2023-10-31T13:39:57;16.80;57.70
46898;DHT22;32646;50.958;6.258;2023-10-31T13:42:23;16.10;59.30
46898;DHT22;32646;50.958;6.258;2023-10-31T13:44:50;15.90;71.60
46898;DHT22;32646;50.958;6.258;2023-10-31T13:47:16;15.50;76.20
46898;DHT22;32646;50.958;6.258;2023-10-31T13:49:43;15.40;69.70
46898;DHT22;32646;50.958;6.258;2023-10-31T13:52:10;15.80;81.00
46898;DHT22;32646;50.958;6.258;2023-10-31T13:54:36;15.60;74.10
46898;DHT22;32646;50.958;6.258;2023-10-31T13:57:03;15.10;78.00
46898;DHT22;32646;50.958;6.258;2023-10-31T13:59:30;14.80;79.90
46898;DHT22;32646;50.958;6.258;2023-10-31T14:01:56;14.90;86.70
46898;DHT22;32646;50.958;6.258;2023-10-31T14:04:23;14.70;73.80
46898;DHT22;32646;50.958;6.258;2023-10-31T14:06:50;14.50;75.10
46898;DHT22;32646;50.958;6.258;2023-10-31T14:09:17;14.10;78.80
46898;DHT22;32646;50.958;6.258;2023-10-31T14:11:44;13.90;83.30
46898;DHT22;32646;50.958;6.258;2023-10-31T14:14:10;13.80;82.80
46898;DHT22;32646;50.958;6.258;2023-10-31T14:16:37;13.70;86.30
46898;DHT22;32646;50.958;6.258;2023-10-31T14:19:04;13.50;88.50
46898;DHT22;32646;50.958;6.258;2023-10-31T14:21:31;13.50;91.30
46898;DHT22;32646;50.958;6.258;2023-10-31T14:23:58;13.50;91.20
46898;DHT22;32646;50.958;6.258;2023-10-31T14:26:36;13.60;94.80
46898;DHT22;32646;50.958;6.258;2023-10-31T14:29:02;13.50;91.30
46898;DHT22;32646;50.958;6.258;2023-10-31T14:31:29;13.60;93.50
46898;DHT22;32646;50.958;6.258;2023-10-31T14:33:56;13.60;92.30
46898;DHT22;32646;50.958;6.258;2023-10-31T14:36:22;13.60;92.10
46898;DHT22;32646;50.958;6.258;2023-10-31T14:38:49;13.60;92.70
46898;DHT22;32646;50.958;6.258;2023-10-31T14:41:15;13.50;91.30
46898;DHT22;32646;50.958;6.258;2023-10-31T14:43:42;13.50;92.80
46898;DHT22;32646;50.958;6.258;2023-10-31T14:46:09;13.50;93.10
46898;DHT22;32646;50.958;6.258;2023-10-31T14:48:35;13.40;93.10
46898;DHT22;32646;50.958;6.258;2023-10-31T14:51:02;13.30;93.90
46898;DHT22;32646;50.958;6.258;2023-10-31T14:53:29;13.20;94.00
46898;DHT22;32646;50.958;6.258;2023-10-31T14:55:55;13.30;94.60
46898;DHT22;32646;50.958;6.258;2023-10-31T14:58:22;13.20;95.90
46898;DHT22;32646;50.958;6.258;2023-10-31T15:00:48;12.90;98.60
46898;DHT22;32646;50.958;6.258;2023-10-31T15:03:15;12.70;99.90
46898;DHT22;32646;50.958;6.258;2023-10-31T15:05:42;12.50;99.90
46898;DHT22;32646;50.958;6.258;2023-10-31T15:08:09;12.40;99.90
46898;DHT22;32646;50.958;6.258;2023-10-31T15:10:35;12.20;99.90
46898;DHT22;32646;50.958;6.258;2023-10-31T15:13:02;11.90;99.90
46898;DHT22;32646;50.958;6.258;2023-10-31T15:15:31;11.70;99.90
46898;DHT22;32646;50.958;6.258;2023-10-31T15:17:57;11.60;99.90
46898;DHT22;32646;50.958;6.258;2023-10-31T15:20:24;11.40;99.90
46898;DHT22;32646;50.958;6.258;2023-10-31T15:22:51;11.30;99.90
46898;DHT22;32646;50.958;6.258;2023-10-31T15:25:17;11.30;99.90
46898;DHT22;32646;50.958;6.258;2023-10-31T15:27:44;11.20;99.90
46898;DHT22;32646;50.958;6.258;2023-10-31T15:30:11;11.20;99.90
46898;DHT22;32646;50.958;6.258;2023-10-31T15:32:38;11.20;99.90
46898;DHT22;32646;50.958;6.258;2023-10-31T15:35:06;11.20;99.90
46898;DHT22;32646;50.958;6.258;2023-10-31T15:37:33;11.20;99.90
46898;DHT22;32646;50.958;6.258;2023-10-31T15:40:00;11.20;99.90